Time;durP1;ratioP1;P1;durP2;ratioP2;P2;SDS_P1;SDS_P2;PMS_P1;PMS_P2;Temp;Humidity;BMP_temperature;BMP_pressure;BME280_temperature;BME280_humidity;BME280_pressure;Samples;Min_cycle;Max_cycle;Signal;HPM_P1;HPM_P2
2022/11/17 00:00:20;;;;;;;12.27;4.05;;;;;;;;;;4845812;29;20065;-85
2022/11/17 00:02:47;;;;;;;13.40;3.70;;;;;;;;;;4855848;29;20058;-84
2022/11/17 00:05:16;;;;;;;11.98;3.70;;;;;;;;;;4861129;29;20062;-85
2022/11/17 00:07:44;;;;;;;10.80;3.95;;;;;;;;;;4860984;29;20068;-85
2022/11/17 00:10:11;;;;;;;9.95;3.90;;;;;;;;;;4871676;29;20069;-85
2022/11/17 00:15:23;;;;;;;12.02;4.35;;;;;;;;;;4862010;29;20065;-84
2022/11/17 00:21:17;;;;;;;17.05;4.15;;;;;;;;;;4861541;29;20049;-85
2022/11/17 00:23:45;;;;;;;8.02;3.88;;;;;;;;;;4830431;29;20070;-86
2022/11/17 00:26:16;;;;;;;11.13;4.20;;;;;;;;;;4825031;29;20057;-85
2022/11/17 00:28:42;;;;;;;16.15;4.95;;;;;;;;;;4839797;29;20924;-86
2022/11/17 00:34:03;;;;;;;13.32;5.43;;;;;;;;;;4861504;29;20054;-85
2022/11/17 00:36:50;;;;;;;14.77;5.47;;;;;;;;;;4859570;29;20058;-85
2022/11/17 00:39:17;;;;;;;16.05;4.65;;;;;;;;;;4857308;29;20061;-84
2022/11/17 00:41:43;;;;;;;9.98;4.68;;;;;;;;;;4858781;29;20054;-84
2022/11/17 00:44:10;;;;;;;11.38;4.75;;;;;;;;;;4868008;29;20065;-84
2022/11/17 00:46:37;;;;;;;12.55;4.80;;;;;;;;;;4857498;29;20533;-85
2022/11/17 00:49:04;;;;;;;9.60;4.25;;;;;;;;;;4874378;29;20061;-85
2022/11/17 00:51:33;;;;;;;12.90;4.38;;;;;;;;;;4874889;29;20186;-83
2022/11/17 00:53:59;;;;;;;13.43;4.88;;;;;;;;;;4872156;29;20057;-86
2022/11/17 00:56:25;;;;;;;11.88;4.10;;;;;;;;;;4857621;29;20064;-85
2022/11/17 00:58:52;;;;;;;11.30;4.80;;;;;;;;;;4858184;29;20056;-83
2022/11/17 01:01:19;;;;;;;16.95;5.03;;;;;;;;;;4881394;29;20049;-84
2022/11/17 01:03:45;;;;;;;14.18;5.10;;;;;;;;;;4888139;29;20053;-84
2022/11/17 01:06:13;;;;;;;11.25;4.47;;;;;;;;;;4867591;29;20065;-82
2022/11/17 01:08:39;;;;;;;12.90;5.00;;;;;;;;;;4856045;29;20065;-85
2022/11/17 01:11:11;;;;;;;11.27;4.20;;;;;;;;;;4873911;29;20092;-84
2022/11/17 01:13:38;;;;;;;10.38;4.78;;;;;;;;;;4857536;29;20053;-83
2022/11/17 01:16:05;;;;;;;12.13;4.85;;;;;;;;;;4856905;29;20100;-84
2022/11/17 01:18:32;;;;;;;10.35;4.45;;;;;;;;;;4856945;29;20072;-83
2022/11/17 01:21:10;;;;;;;12.13;4.53;;;;;;;;;;4873155;29;20058;-82
2022/11/17 01:23:37;;;;;;;11.95;4.60;;;;;;;;;;4871997;29;20049;-83
2022/11/17 01:26:05;;;;;;;11.00;4.75;;;;;;;;;;4880963;29;20064;-83
2022/11/17 01:28:31;;;;;;;11.18;4.97;;;;;;;;;;4873130;29;20654;-83
2022/11/17 01:31:03;;;;;;;12.60;4.57;;;;;;;;;;4873977;29;20108;-83
2022/11/17 01:33:29;;;;;;;11.93;5.60;;;;;;;;;;4872015;29;20057;-84
2022/11/17 01:35:59;;;;;;;12.55;4.95;;;;;;;;;;4874483;29;20086;-82
2022/11/17 01:38:25;;;;;;;11.43;4.78;;;;;;;;;;4874213;29;20065;-83
2022/11/17 01:40:52;;;;;;;11.77;5.43;;;;;;;;;;4879403;29;20053;-83
2022/11/17 01:43:38;;;;;;;9.10;4.18;;;;;;;;;;4866957;29;20057;-83
2022/11/17 01:46:08;;;;;;;8.38;4.25;;;;;;;;;;4872832;29;20835;-83
2022/11/17 01:48:34;;;;;;;10.65;4.57;;;;;;;;;;4856882;29;20069;-84
2022/11/17 01:51:03;;;;;;;9.52;4.72;;;;;;;;;;4857327;29;20176;-84
2022/11/17 01:53:32;;;;;;;10.27;4.43;;;;;;;;;;4853364;29;20053;-83
2022/11/17 01:56:01;;;;;;;9.13;3.50;;;;;;;;;;4865845;29;20075;-83
2022/11/17 01:58:30;;;;;;;8.27;3.55;;;;;;;;;;4855808;29;20061;-84
2022/11/17 02:00:56;;;;;;;7.85;3.53;;;;;;;;;;4855033;29;20057;-86
2022/11/17 02:03:24;;;;;;;6.25;3.30;;;;;;;;;;4871502;29;20065;-86
2022/11/17 02:05:54;;;;;;;8.05;3.35;;;;;;;;;;4871096;29;20057;-84
2022/11/17 02:08:21;;;;;;;10.43;3.53;;;;;;;;;;4855464;29;20067;-86
2022/11/17 02:10:49;;;;;;;10.60;3.03;;;;;;;;;;4869562;29;20060;-87
2022/11/17 02:13:18;;;;;;;6.63;2.55;;;;;;;;;;4869580;29;20552;-86
2022/11/17 02:15:44;;;;;;;7.45;2.40;;;;;;;;;;4854822;29;20041;-84
2022/11/17 02:18:10;;;;;;;8.63;2.33;;;;;;;;;;4871025;29;20072;-84
2022/11/17 02:20:45;;;;;;;7.50;2.33;;;;;;;;;;4855302;29;20042;-85
2022/11/17 02:23:23;;;;;;;7.03;3.00;;;;;;;;;;4854702;29;20555;-87
2022/11/17 02:25:49;;;;;;;8.98;2.78;;;;;;;;;;4859417;29;20053;-86
2022/11/17 02:28:17;;;;;;;8.50;2.95;;;;;;;;;;4869557;29;20058;-85
2022/11/17 02:30:43;;;;;;;7.90;2.92;;;;;;;;;;4871708;29;20521;-86
2022/11/17 02:33:30;;;;;;;7.30;3.17;;;;;;;;;;4869093;29;20869;-85
2022/11/17 02:36:23;;;;;;;7.80;3.15;;;;;;;;;;4851860;29;20126;-87
2022/11/17 02:38:58;;;;;;;7.57;2.78;;;;;;;;;;4846073;29;20148;-85
2022/11/17 02:41:30;;;;;;;5.93;2.78;;;;;;;;;;4853670;29;20144;-85
2022/11/17 02:44:02;;;;;;;4.78;2.47;;;;;;;;;;4855816;29;20059;-87
2022/11/17 02:46:35;;;;;;;7.03;3.13;;;;;;;;;;4871348;29;20057;-86
2022/11/17 02:49:04;;;;;;;9.45;2.70;;;;;;;;;;4871323;29;20061;-84
2022/11/17 02:51:31;;;;;;;9.40;2.92;;;;;;;;;;4870788;29;20065;-84
2022/11/17 02:53:58;;;;;;;6.85;2.38;;;;;;;;;;4870212;29;20096;-86
2022/11/17 02:56:25;;;;;;;7.15;2.28;;;;;;;;;;4872724;29;20690;-84
2022/11/17 02:58:55;;;;;;;6.97;2.60;;;;;;;;;;4855809;29;20085;-85
2022/11/17 03:01:36;;;;;;;5.50;2.60;;;;;;;;;;4853518;29;20947;-85
2022/11/17 03:04:10;;;;;;;6.00;2.22;;;;;;;;;;4849763;29;20064;-84
2022/11/17 03:06:44;;;;;;;5.32;2.50;;;;;;;;;;4871450;29;20062;-84
2022/11/17 03:09:10;;;;;;;7.32;2.30;;;;;;;;;;4856022;29;20053;-85
2022/11/17 03:11:40;;;;;;;6.18;2.35;;;;;;;;;;4870914;29;20538;-85
2022/11/17 03:14:11;;;;;;;9.50;2.42;;;;;;;;;;4851812;29;20154;-85
2022/11/17 03:16:46;;;;;;;7.20;2.72;;;;;;;;;;4853564;29;20062;-86
2022/11/17 03:19:15;;;;;;;6.20;2.30;;;;;;;;;;4876182;29;20543;-87
2022/11/17 03:21:45;;;;;;;5.82;2.30;;;;;;;;;;4880180;29;20410;-86
2022/11/17 03:24:18;;;;;;;6.65;2.08;;;;;;;;;;4847343;29;20531;-86
2022/11/17 03:26:47;;;;;;;4.47;1.90;;;;;;;;;;4855564;29;20054;-85
2022/11/17 03:29:15;;;;;;;6.75;2.67;;;;;;;;;;4855511;29;20061;-87
2022/11/17 03:31:44;;;;;;;5.32;2.25;;;;;;;;;;4853978;29;20501;-87
2022/11/17 03:34:12;;;;;;;5.38;2.10;;;;;;;;;;4854144;29;20053;-86
2022/11/17 03:36:42;;;;;;;6.72;2.33;;;;;;;;;;4855287;29;20063;-85
2022/11/17 03:39:15;;;;;;;4.43;1.95;;;;;;;;;;4871069;29;20799;-85
2022/11/17 03:41:43;;;;;;;4.72;2.17;;;;;;;;;;4855718;29;21262;-85
2022/11/17 03:44:11;;;;;;;4.22;2.13;;;;;;;;;;4869493;29;20498;-87
2022/11/17 03:46:37;;;;;;;5.15;2.00;;;;;;;;;;4865613;29;20084;-85
2022/11/17 03:49:25;;;;;;;5.15;2.42;;;;;;;;;;4865066;29;20066;-88
2022/11/17 03:51:52;;;;;;;7.72;2.40;;;;;;;;;;4854175;29;20129;-87
2022/11/17 03:54:18;;;;;;;6.63;2.35;;;;;;;;;;4852409;29;20072;-87
2022/11/17 03:56:58;;;;;;;5.10;2.17;;;;;;;;;;4871042;29;20070;-87
2022/11/17 03:59:45;;;;;;;5.75;2.38;;;;;;;;;;4870609;29;20061;-86
2022/11/17 04:02:19;;;;;;;6.10;2.25;;;;;;;;;;4859401;29;20510;-87
2022/11/17 04:07:56;;;;;;;6.25;2.10;;;;;;;;;;4862435;29;20057;-85
2022/11/17 04:10:26;;;;;;;3.70;2.10;;;;;;;;;;4870216;29;20072;-85
2022/11/17 04:15:57;;;;;;;4.50;2.30;;;;;;;;;;4865785;29;20069;-86
2022/11/17 04:18:24;;;;;;;5.43;2.20;;;;;;;;;;4854931;29;20090;-85
2022/11/17 04:20:53;;;;;;;5.25;2.20;;;;;;;;;;4854568;29;20057;-86
2022/11/17 04:23:20;;;;;;;5.53;2.05;;;;;;;;;;4870584;29;20510;-85
2022/11/17 04:28:36;;;;;;;5.45;2.47;;;;;;;;;;4891297;29;20084;-85
2022/11/17 04:31:15;;;;;;;6.80;1.92;;;;;;;;;;4874168;29;20049;-87
2022/11/17 04:33:43;;;;;;;5.20;2.00;;;;;;;;;;4876590;29;20061;-88
2022/11/17 04:36:10;;;;;;;4.03;2.10;;;;;;;;;;4849447;29;20066;-85
2022/11/17 04:38:39;;;;;;;4.82;2.00;;;;;;;;;;4855538;29;20076;-87
2022/11/17 04:43:52;;;;;;;4.13;1.95;;;;;;;;;;4877578;29;20053;-85
2022/11/17 04:46:20;;;;;;;5.90;1.95;;;;;;;;;;4855407;29;20139;-85
2022/11/17 04:48:46;;;;;;;5.18;1.80;;;;;;;;;;4854804;29;20049;-85
2022/11/17 04:51:13;;;;;;;4.78;1.52;;;;;;;;;;4871896;29;20057;-85
2022/11/17 04:53:40;;;;;;;6.72;1.92;;;;;;;;;;4852928;29;20520;-86
2022/11/17 04:56:06;;;;;;;6.05;1.65;;;;;;;;;;4870601;29;20054;-85
2022/11/17 04:58:33;;;;;;;4.45;1.88;;;;;;;;;;4855695;29;20060;-88
2022/11/17 05:01:11;;;;;;;5.60;1.50;;;;;;;;;;4855007;29;20064;-86
2022/11/17 05:03:41;;;;;;;4.05;1.83;;;;;;;;;;4852398;29;20050;-86
2022/11/17 05:06:08;;;;;;;6.78;1.70;;;;;;;;;;4853422;29;20164;-85
2022/11/17 05:08:36;;;;;;;3.78;1.80;;;;;;;;;;4836851;29;20077;-86
2022/11/17 05:13:48;;;;;;;3.65;1.50;;;;;;;;;;4853244;29;20556;-85
2022/11/17 05:19:00;;;;;;;4.75;2.05;;;;;;;;;;4872582;29;20061;-84
2022/11/17 05:21:26;;;;;;;5.45;2.00;;;;;;;;;;4855827;29;20057;-84
2022/11/17 05:23:52;;;;;;;4.53;1.73;;;;;;;;;;4874333;29;20073;-83
2022/11/17 05:26:22;;;;;;;5.45;2.20;;;;;;;;;;4856012;29;20517;-84
2022/11/17 05:28:48;;;;;;;4.00;2.05;;;;;;;;;;4854053;29;20065;-85
2022/11/17 05:31:15;;;;;;;4.47;2.05;;;;;;;;;;4854603;29;20057;-84
2022/11/17 05:33:41;;;;;;;8.55;2.67;;;;;;;;;;4870890;29;20113;-86
2022/11/17 05:36:09;;;;;;;5.25;2.58;;;;;;;;;;4854268;29;20069;-86
2022/11/17 05:38:35;;;;;;;7.75;2.70;;;;;;;;;;4854545;29;20293;-86
2022/11/17 05:41:02;;;;;;;6.00;2.58;;;;;;;;;;4850712;29;20061;-87
2022/11/17 05:43:28;;;;;;;6.72;2.40;;;;;;;;;;4853908;29;20068;-87
2022/11/17 05:45:54;;;;;;;7.18;2.65;;;;;;;;;;4855940;29;20519;-85
2022/11/17 05:48:21;;;;;;;6.85;2.70;;;;;;;;;;4854287;29;20060;-86
2022/11/17 05:50:47;;;;;;;5.68;2.60;;;;;;;;;;4870104;29;20054;-86
2022/11/17 05:53:13;;;;;;;8.52;2.70;;;;;;;;;;4879232;29;20121;-85
2022/11/17 05:55:39;;;;;;;6.45;2.88;;;;;;;;;;4856439;29;20064;-85
2022/11/17 05:58:11;;;;;;;8.80;2.67;;;;;;;;;;4855409;29;20065;-86
2022/11/17 06:00:38;;;;;;;8.63;3.13;;;;;;;;;;4859547;29;20057;-83
2022/11/17 06:03:07;;;;;;;6.88;2.70;;;;;;;;;;4856529;29;20057;-84
2022/11/17 06:05:33;;;;;;;6.78;2.97;;;;;;;;;;4869765;29;20084;-84
2022/11/17 06:07:59;;;;;;;5.65;2.58;;;;;;;;;;4874177;29;20072;-84
2022/11/17 06:10:26;;;;;;;5.75;2.55;;;;;;;;;;4856608;29;20062;-83
2022/11/17 06:12:52;;;;;;;9.48;2.78;;;;;;;;;;4873929;29;20077;-84
2022/11/17 06:15:18;;;;;;;8.13;3.15;;;;;;;;;;4870121;29;20065;-85
2022/11/17 06:17:48;;;;;;;6.78;2.72;;;;;;;;;;4852793;29;20054;-85
2022/11/17 06:20:18;;;;;;;7.50;2.30;;;;;;;;;;4872772;29;20124;-84
2022/11/17 06:22:45;;;;;;;6.55;1.90;;;;;;;;;;4857968;29;20053;-83
2022/11/17 06:25:14;;;;;;;4.75;1.92;;;;;;;;;;4856837;29;20061;-84
2022/11/17 06:27:41;;;;;;;7.93;1.90;;;;;;;;;;4869946;29;20068;-85
2022/11/17 06:30:08;;;;;;;8.98;2.00;;;;;;;;;;4874004;29;21080;-84
2022/11/17 06:32:36;;;;;;;5.55;1.70;;;;;;;;;;4857307;29;20090;-83
2022/11/17 06:35:05;;;;;;;7.65;2.03;;;;;;;;;;4871924;29;20062;-83
2022/11/17 06:37:31;;;;;;;9.75;1.98;;;;;;;;;;4852809;29;20062;-83
2022/11/17 06:39:58;;;;;;;6.38;1.83;;;;;;;;;;4864774;29;20057;-83
2022/11/17 06:45:10;;;;;;;6.30;2.10;;;;;;;;;;4868944;29;20565;-83
2022/11/17 06:47:36;;;;;;;7.63;2.47;;;;;;;;;;4854367;29;20065;-83
2022/11/17 06:50:03;;;;;;;12.23;2.35;;;;;;;;;;4855392;29;20064;-82
2022/11/17 06:52:29;;;;;;;8.30;1.67;;;;;;;;;;4855896;29;20077;-83
2022/11/17 06:54:56;;;;;;;6.25;1.58;;;;;;;;;;4854469;29;20069;-83
2022/11/17 06:57:22;;;;;;;11.13;2.15;;;;;;;;;;4851113;29;20089;-83
2022/11/17 06:59:50;;;;;;;5.65;1.52;;;;;;;;;;4867815;29;20089;-82
2022/11/17 07:02:17;;;;;;;6.80;1.48;;;;;;;;;;4872851;29;20084;-83
2022/11/17 07:04:43;;;;;;;12.85;1.90;;;;;;;;;;4856035;29;20058;-83
2022/11/17 07:07:10;;;;;;;6.70;2.00;;;;;;;;;;4873468;29;20093;-83
2022/11/17 07:09:37;;;;;;;6.15;1.40;;;;;;;;;;4853476;29;20186;-83
2022/11/17 07:12:03;;;;;;;8.43;1.63;;;;;;;;;;4855029;29;20537;-82
2022/11/17 07:14:30;;;;;;;7.00;1.73;;;;;;;;;;4860151;29;20068;-83
2022/11/17 07:16:57;;;;;;;7.10;1.63;;;;;;;;;;4856529;29;20062;-83
2022/11/17 07:19:23;;;;;;;9.07;1.75;;;;;;;;;;4856179;29;20072;-84
2022/11/17 07:21:49;;;;;;;8.35;1.77;;;;;;;;;;4856561;29;20061;-83
2022/11/17 07:24:16;;;;;;;8.32;1.80;;;;;;;;;;4856026;29;20118;-84
2022/11/17 07:26:42;;;;;;;10.50;1.85;;;;;;;;;;4852543;29;20057;-83
2022/11/17 07:29:08;;;;;;;7.50;1.33;;;;;;;;;;4845174;29;20057;-83
2022/11/17 07:31:35;;;;;;;7.13;1.40;;;;;;;;;;4871575;29;20122;-83
2022/11/17 07:34:02;;;;;;;8.57;1.63;;;;;;;;;;4856498;29;20736;-83
2022/11/17 07:36:28;;;;;;;6.68;1.75;;;;;;;;;;4855980;29;20057;-83
2022/11/17 07:38:54;;;;;;;10.18;1.70;;;;;;;;;;4873646;29;20509;-83
2022/11/17 07:41:21;;;;;;;5.88;1.40;;;;;;;;;;4856150;29;20597;-83
2022/11/17 07:43:47;;;;;;;12.05;1.40;;;;;;;;;;4852843;29;20058;-83
2022/11/17 07:46:14;;;;;;;6.32;1.42;;;;;;;;;;4858663;29;20114;-84
2022/11/17 07:48:43;;;;;;;7.00;1.20;;;;;;;;;;4841564;29;20085;-84
2022/11/17 07:51:10;;;;;;;7.40;1.25;;;;;;;;;;4855927;29;20088;-83
2022/11/17 07:53:39;;;;;;;5.75;0.90;;;;;;;;;;4855182;29;20525;-83
2022/11/17 07:56:07;;;;;;;6.93;1.10;;;;;;;;;;4872566;29;20110;-83
2022/11/17 07:58:34;;;;;;;7.35;1.17;;;;;;;;;;4873151;29;20509;-82
2022/11/17 08:01:09;;;;;;;4.05;1.25;;;;;;;;;;4871775;29;20109;-82
2022/11/17 08:03:35;;;;;;;6.03;1.00;;;;;;;;;;4872055;29;20070;-82
2022/11/17 08:06:06;;;;;;;3.60;1.02;;;;;;;;;;4856845;29;21155;-82
2022/11/17 08:08:32;;;;;;;7.65;1.30;;;;;;;;;;4857287;29;20060;-82
2022/11/17 08:11:04;;;;;;;6.75;1.10;;;;;;;;;;4855488;29;20064;-82
2022/11/17 08:13:30;;;;;;;3.17;1.00;;;;;;;;;;4864670;29;20057;-82
2022/11/17 08:15:58;;;;;;;7.22;1.25;;;;;;;;;;4873567;29;20065;-83
2022/11/17 08:18:24;;;;;;;8.50;1.10;;;;;;;;;;4853936;29;20092;-81
2022/11/17 08:20:51;;;;;;;5.78;1.02;;;;;;;;;;4856154;29;20084;-82
2022/11/17 08:23:17;;;;;;;8.27;1.10;;;;;;;;;;4852319;29;20553;-83
2022/11/17 08:25:43;;;;;;;6.78;1.10;;;;;;;;;;4854375;29;20129;-82
2022/11/17 08:28:12;;;;;;;5.28;1.20;;;;;;;;;;4856670;29;20614;-83
2022/11/17 08:30:39;;;;;;;6.80;1.15;;;;;;;;;;4856323;29;20089;-82
2022/11/17 08:33:05;;;;;;;2.78;0.88;;;;;;;;;;4854753;29;20064;-83
2022/11/17 08:35:32;;;;;;;6.20;1.02;;;;;;;;;;4836043;29;20065;-82
2022/11/17 08:38:03;;;;;;;5.97;1.20;;;;;;;;;;4835465;29;20061;-82
2022/11/17 08:40:29;;;;;;;4.20;0.93;;;;;;;;;;4853168;29;20093;-84
2022/11/17 08:42:57;;;;;;;4.50;1.10;;;;;;;;;;4835617;29;20065;-83
2022/11/17 08:45:26;;;;;;;5.05;1.25;;;;;;;;;;4852889;29;20057;-83
2022/11/17 08:47:54;;;;;;;8.27;1.10;;;;;;;;;;4852451;29;20058;-82
2022/11/17 08:50:21;;;;;;;6.28;1.05;;;;;;;;;;4851702;29;20070;-83
2022/11/17 08:52:47;;;;;;;7.40;1.15;;;;;;;;;;4840166;29;20094;-83
2022/11/17 08:55:14;;;;;;;4.18;1.58;;;;;;;;;;4835134;29;20422;-83
2022/11/17 08:57:40;;;;;;;5.07;1.30;;;;;;;;;;4851611;29;20145;-83
2022/11/17 09:00:08;;;;;;;5.50;1.38;;;;;;;;;;4840176;29;20066;-83
2022/11/17 09:02:36;;;;;;;3.22;0.90;;;;;;;;;;4837064;29;20100;-83
2022/11/17 09:05:03;;;;;;;7.03;1.58;;;;;;;;;;4845481;29;20062;-83
2022/11/17 09:07:33;;;;;;;4.43;1.48;;;;;;;;;;4846944;29;20240;-83
2022/11/17 09:10:00;;;;;;;;;;;;;;;;;;4836311;29;20081;-83
2022/11/17 09:12:26;;;;;;;6.53;1.25;;;;;;;;;;4849119;29;43887;-83
2022/11/17 09:14:53;;;;;;;4.57;1.17;;;;;;;;;;4851738;29;20065;-82
2022/11/17 09:17:19;;;;;;;5.55;1.40;;;;;;;;;;4851863;29;20513;-83
2022/11/17 09:19:48;;;;;;;5.32;1.55;;;;;;;;;;4835507;29;20068;-83
2022/11/17 09:22:15;;;;;;;4.20;1.42;;;;;;;;;;4831575;29;20064;-83
2022/11/17 09:24:41;;;;;;;5.45;1.60;;;;;;;;;;4836344;29;20146;-82
2022/11/17 09:27:08;;;;;;;5.13;1.23;;;;;;;;;;4850036;29;20076;-83
2022/11/17 09:29:37;;;;;;;4.03;1.08;;;;;;;;;;4837936;29;20142;-83
2022/11/17 09:32:03;;;;;;;5.30;1.20;;;;;;;;;;4823209;29;20058;-83
2022/11/17 09:34:44;;;;;;;;;;;;;;;;;;;;;
2022/11/17 09:37:35;;;;;;;5.18;1.40;;;;;;;;;;4847530;29;21009;-83
2022/11/17 09:40:01;;;;;;;3.65;1.10;;;;;;;;;;4855443;29;20543;-83
2022/11/17 09:42:29;;;;;;;7.75;1.75;;;;;;;;;;4855488;29;20097;-83
2022/11/17 09:45:11;;;;;;;5.72;1.08;;;;;;;;;;4857956;29;20046;-83
2022/11/17 09:47:44;;;;;;;6.35;1.30;;;;;;;;;;4839816;29;20066;-83
2022/11/17 09:50:18;;;;;;;4.95;1.35;;;;;;;;;;4850245;29;20080;-83
2022/11/17 09:52:48;;;;;;;4.95;1.27;;;;;;;;;;4841068;29;20137;-83
2022/11/17 09:55:43;;;;;;;6.30;1.30;;;;;;;;;;4857890;29;20804;-83
2022/11/17 09:58:16;;;;;;;4.93;1.42;;;;;;;;;;4840842;29;20065;-82
2022/11/17 10:00:51;;;;;;;6.40;1.30;;;;;;;;;;4853116;29;20100;-82
2022/11/17 10:03:27;;;;;;;6.60;1.15;;;;;;;;;;4840537;29;20832;-84
2022/11/17 10:06:02;;;;;;;3.67;1.20;;;;;;;;;;4839631;29;20062;-84
2022/11/17 10:08:29;;;;;;;4.05;1.20;;;;;;;;;;4845459;29;20593;-83
2022/11/17 10:10:55;;;;;;;6.63;1.23;;;;;;;;;;4857010;29;20481;-84
2022/11/17 10:13:29;;;;;;;7.03;1.30;;;;;;;;;;4842948;29;20068;-85
2022/11/17 10:16:02;;;;;;;6.30;1.23;;;;;;;;;;4849131;29;20061;-85
2022/11/17 10:18:31;;;;;;;5.50;1.10;;;;;;;;;;4841158;29;20102;-88
2022/11/17 10:21:05;;;;;;;7.43;1.50;;;;;;;;;;4854605;29;20226;-85
2022/11/17 10:23:51;;;;;;;5.50;1.45;;;;;;;;;;4840608;29;20064;-84
2022/11/17 10:26:17;;;;;;;6.85;1.75;;;;;;;;;;4853052;29;20058;-84
2022/11/17 10:28:47;;;;;;;5.72;1.08;;;;;;;;;;4851443;29;20061;-83
2022/11/17 10:31:14;;;;;;;6.10;0.90;;;;;;;;;;4852776;29;20073;-84
2022/11/17 10:33:43;;;;;;;6.03;1.35;;;;;;;;;;4855379;29;20198;-85
2022/11/17 10:36:13;;;;;;;7.00;1.50;;;;;;;;;;4870694;29;20097;-84
2022/11/17 10:38:49;;;;;;;8.20;1.42;;;;;;;;;;4864800;29;20509;-84
2022/11/17 10:41:21;;;;;;;4.95;1.20;;;;;;;;;;4856832;29;20094;-84
2022/11/17 10:44:00;;;;;;;5.20;1.25;;;;;;;;;;4857227;29;20825;-84
2022/11/17 10:46:27;;;;;;;7.13;1.40;;;;;;;;;;4870237;29;20952;-84
2022/11/17 10:49:21;;;;;;;5.70;1.25;;;;;;;;;;4854747;29;20111;-84
2022/11/17 10:51:47;;;;;;;;;;;;;;;;;;4874298;29;20061;-85
2022/11/17 10:54:13;;;;;;;6.68;1.90;;;;;;;;;;4870935;29;46766;-85
2022/11/17 10:56:51;;;;;;;6.80;1.75;;;;;;;;;;4856435;29;20061;-85
2022/11/17 10:59:29;;;;;;;5.72;1.60;;;;;;;;;;4870961;29;20160;-85
2022/11/17 11:01:56;;;;;;;4.55;1.25;;;;;;;;;;4856173;29;20532;-85
2022/11/17 11:04:32;;;;;;;4.75;1.20;;;;;;;;;;4857687;29;20587;-85
2022/11/17 11:07:15;;;;;;;4.18;1.13;;;;;;;;;;4872517;29;20057;-85
2022/11/17 11:09:47;;;;;;;5.13;1.33;;;;;;;;;;4872792;29;21239;-85
2022/11/17 11:12:16;;;;;;;8.25;1.10;;;;;;;;;;4875920;29;20061;-85
2022/11/17 11:14:50;;;;;;;6.93;1.40;;;;;;;;;;4860255;29;20093;-84
2022/11/17 11:17:19;;;;;;;4.28;1.30;;;;;;;;;;4861241;29;20848;-82
2022/11/17 11:19:52;;;;;;;7.47;1.50;;;;;;;;;;4857932;29;20065;-82
2022/11/17 11:22:30;;;;;;;7.10;1.38;;;;;;;;;;4860769;29;20148;-82
2022/11/17 11:25:03;;;;;;;4.97;1.55;;;;;;;;;;4874425;29;20090;-82
2022/11/17 11:27:44;;;;;;;5.43;1.50;;;;;;;;;;4872563;29;20073;-82
2022/11/17 11:30:13;;;;;;;11.88;1.63;;;;;;;;;;4872491;29;20053;-82
2022/11/17 11:32:40;;;;;;;8.13;1.50;;;;;;;;;;4870182;29;20054;-82
2022/11/17 11:35:28;;;;;;;4.47;1.20;;;;;;;;;;4871533;29;20100;-82
2022/11/17 11:38:01;;;;;;;4.47;1.50;;;;;;;;;;4853190;29;20445;-82
2022/11/17 11:40:30;;;;;;;5.13;1.33;;;;;;;;;;4859584;29;20101;-78
2022/11/17 11:43:03;;;;;;;4.75;1.23;;;;;;;;;;4857984;29;20136;-83
2022/11/17 11:45:39;;;;;;;5.07;1.50;;;;;;;;;;4868789;29;20069;-83
2022/11/17 11:48:21;;;;;;;3.80;1.55;;;;;;;;;;4871207;29;20088;-83
2022/11/17 11:50:55;;;;;;;7.28;1.45;;;;;;;;;;4863810;29;20092;-84
2022/11/17 11:53:41;;;;;;;7.63;1.17;;;;;;;;;;4873914;29;20057;-83
2022/11/17 11:56:11;;;;;;;6.32;1.58;;;;;;;;;;4865672;29;20149;-83
2022/11/17 11:58:41;;;;;;;7.47;1.25;;;;;;;;;;4873396;29;20100;-83
2022/11/17 12:01:08;;;;;;;5.25;1.40;;;;;;;;;;4870851;29;20066;-84
2022/11/17 12:03:49;;;;;;;3.22;1.00;;;;;;;;;;4837941;29;20881;-83
2022/11/17 12:06:39;;;;;;;7.78;1.27;;;;;;;;;;4864030;29;20079;-84
2022/11/17 12:09:13;;;;;;;9.60;1.30;;;;;;;;;;4856099;29;20057;-83
2022/11/17 12:14:29;;;;;;;7.65;1.45;;;;;;;;;;4869160;29;20214;-84
2022/11/17 12:17:00;;;;;;;2.78;1.10;;;;;;;;;;4853598;29;20132;-84
2022/11/17 12:19:46;;;;;;;5.20;1.42;;;;;;;;;;4871131;29;20057;-84
2022/11/17 12:22:16;;;;;;;8.38;1.90;;;;;;;;;;4868856;29;20141;-84
2022/11/17 12:24:43;;;;;;;5.95;1.55;;;;;;;;;;4860076;29;20057;-83
2022/11/17 12:27:28;;;;;;;9.90;1.50;;;;;;;;;;4859274;29;20055;-83
2022/11/17 12:29:55;;;;;;;6.38;1.13;;;;;;;;;;4872949;29;20136;-83
2022/11/17 12:32:40;;;;;;;6.03;1.30;;;;;;;;;;4857339;29;20114;-84
2022/11/17 12:35:33;;;;;;;4.70;1.40;;;;;;;;;;4873431;29;20144;-84
2022/11/17 12:38:21;;;;;;;4.57;1.25;;;;;;;;;;4858305;29;20780;-85
2022/11/17 12:40:48;;;;;;;5.85;1.25;;;;;;;;;;4872861;29;20062;-85
2022/11/17 12:43:15;;;;;;;12.35;1.85;;;;;;;;;;4876429;29;20080;-85
2022/11/17 12:45:53;;;;;;;5.25;1.65;;;;;;;;;;4875718;29;20080;-84
2022/11/17 12:48:27;;;;;;;9.02;1.60;;;;;;;;;;4871867;29;20062;-84
2022/11/17 12:51:08;;;;;;;4.10;1.30;;;;;;;;;;4855743;29;20154;-85
2022/11/17 12:53:46;;;;;;;7.55;1.60;;;;;;;;;;4843831;29;20058;-85
2022/11/17 12:56:22;;;;;;;7.32;1.58;;;;;;;;;;4857703;29;20053;-85
2022/11/17 12:58:54;;;;;;;4.80;1.65;;;;;;;;;;4872143;29;20049;-85
2022/11/17 13:02:00;;;;;;;7.10;1.63;;;;;;;;;;4892082;29;20086;-84
2022/11/17 13:04:35;;;;;;;6.78;1.48;;;;;;;;;;4833475;29;20062;-85
2022/11/17 13:07:03;;;;;;;6.95;1.60;;;;;;;;;;4818016;29;20087;-85
2022/11/17 13:09:32;;;;;;;4.47;1.70;;;;;;;;;;4820064;29;20569;-85
2022/11/17 13:12:03;;;;;;;5.50;1.50;;;;;;;;;;4853525;29;20281;-85
2022/11/17 13:14:31;;;;;;;5.07;1.90;;;;;;;;;;4865912;29;20057;-85
2022/11/17 13:16:59;;;;;;;5.85;1.70;;;;;;;;;;4871957;29;20069;-85
2022/11/17 13:19:34;;;;;;;5.93;1.58;;;;;;;;;;4872957;29;20049;-86
2022/11/17 13:22:00;;;;;;;5.85;1.50;;;;;;;;;;4871530;29;20061;-85
2022/11/17 13:24:28;;;;;;;7.25;1.60;;;;;;;;;;4873802;29;20068;-85
2022/11/17 13:26:58;;;;;;;6.90;1.80;;;;;;;;;;4873591;29;20152;-85
2022/11/17 13:29:24;;;;;;;6.82;1.40;;;;;;;;;;4872852;29;20061;-86
2022/11/17 13:32:09;;;;;;;6.05;1.73;;;;;;;;;;4870016;29;20164;-85
2022/11/17 13:34:43;;;;;;;4.00;1.63;;;;;;;;;;4886999;29;20140;-85
2022/11/17 13:37:14;;;;;;;4.25;1.45;;;;;;;;;;4873092;29;20097;-85
2022/11/17 13:39:51;;;;;;;6.10;1.50;;;;;;;;;;4885929;29;20053;-85
2022/11/17 13:42:18;;;;;;;4.53;1.48;;;;;;;;;;4856193;29;20072;-85
2022/11/17 13:44:45;;;;;;;4.40;1.38;;;;;;;;;;4838099;29;20892;-84
2022/11/17 13:47:18;;;;;;;7.60;1.77;;;;;;;;;;4855417;29;20061;-85
2022/11/17 13:49:46;;;;;;;9.82;2.20;;;;;;;;;;4842850;29;20068;-85
2022/11/17 13:52:30;;;;;;;6.95;1.50;;;;;;;;;;4839023;29;20863;-86
2022/11/17 13:55:09;;;;;;;6.32;1.60;;;;;;;;;;4857359;29;20176;-85
2022/11/17 13:57:36;;;;;;;7.90;1.50;;;;;;;;;;4847520;29;20110;-85
2022/11/17 14:00:03;;;;;;;5.50;1.38;;;;;;;;;;4857749;29;20138;-86
2022/11/17 14:02:29;;;;;;;7.13;1.45;;;;;;;;;;4870333;29;20061;-85
2022/11/17 14:05:08;;;;;;;6.13;1.65;;;;;;;;;;4875807;29;20065;-85
2022/11/17 14:07:35;;;;;;;7.30;1.60;;;;;;;;;;4889043;29;20100;-84
2022/11/17 14:10:20;;;;;;;7.13;1.88;;;;;;;;;;4873525;29;20108;-84
2022/11/17 14:12:48;;;;;;;6.10;1.33;;;;;;;;;;4877388;29;20058;-83
2022/11/17 14:15:21;;;;;;;5.30;1.42;;;;;;;;;;4854857;29;20064;-84
2022/11/17 14:17:58;;;;;;;5.03;1.65;;;;;;;;;;4863013;29;20061;-84
2022/11/17 14:20:24;;;;;;;7.45;1.30;;;;;;;;;;4854659;29;20164;-84
2022/11/17 14:23:09;;;;;;;7.53;1.98;;;;;;;;;;4870766;29;20059;-84
2022/11/17 14:25:39;;;;;;;5.07;1.88;;;;;;;;;;4865289;29;20489;-84
2022/11/17 14:28:13;;;;;;;6.15;1.60;;;;;;;;;;4857128;29;20080;-84
2022/11/17 14:30:39;;;;;;;4.90;1.60;;;;;;;;;;4855292;29;20054;-84
2022/11/17 14:33:06;;;;;;;10.45;2.42;;;;;;;;;;4869170;29;20057;-85
2022/11/17 14:35:39;;;;;;;5.55;1.60;;;;;;;;;;4862916;29;20077;-84
2022/11/17 14:38:08;;;;;;;8.02;2.08;;;;;;;;;;4891791;29;20046;-85
2022/11/17 14:40:34;;;;;;;7.03;1.52;;;;;;;;;;4886336;29;20235;-85
2022/11/17 14:43:00;;;;;;;8.05;1.80;;;;;;;;;;4882564;29;20064;-84
2022/11/17 14:45:27;;;;;;;7.53;1.70;;;;;;;;;;4873784;29;20392;-85
2022/11/17 14:47:53;;;;;;;6.13;1.80;;;;;;;;;;4875073;29;20098;-84
2022/11/17 14:50:20;;;;;;;5.38;1.30;;;;;;;;;;4876208;29;20061;-85
2022/11/17 14:52:47;;;;;;;6.35;2.03;;;;;;;;;;4880274;29;20549;-85
2022/11/17 14:55:13;;;;;;;7.50;1.75;;;;;;;;;;4874913;29;20088;-85
2022/11/17 14:57:40;;;;;;;4.57;1.70;;;;;;;;;;4873135;29;20136;-85
2022/11/17 15:00:07;;;;;;;5.57;1.58;;;;;;;;;;4876231;29;20086;-84
2022/11/17 15:02:33;;;;;;;5.78;1.63;;;;;;;;;;4877948;29;20053;-85
2022/11/17 15:05:00;;;;;;;8.45;1.70;;;;;;;;;;4871584;29;20148;-85
2022/11/17 15:07:27;;;;;;;6.20;1.73;;;;;;;;;;4866301;29;20070;-85
2022/11/17 15:09:54;;;;;;;4.47;1.20;;;;;;;;;;4875772;29;20144;-85
2022/11/17 15:12:20;;;;;;;7.90;1.30;;;;;;;;;;4864562;29;20148;-85
2022/11/17 15:14:47;;;;;;;5.07;1.25;;;;;;;;;;4893348;29;20064;-85
2022/11/17 15:17:14;;;;;;;7.93;1.90;;;;;;;;;;4894663;29;20057;-85
2022/11/17 15:19:40;;;;;;;5.85;1.30;;;;;;;;;;4894537;29;20048;-85
2022/11/17 15:22:06;;;;;;;5.22;1.90;;;;;;;;;;4868934;29;20525;-85
2022/11/17 15:24:33;;;;;;;9.65;2.75;;;;;;;;;;4858307;29;20057;-85
2022/11/17 15:26:59;;;;;;;4.90;1.25;;;;;;;;;;4858660;29;20057;-85
2022/11/17 15:29:25;;;;;;;5.18;1.00;;;;;;;;;;4858873;29;20509;-86
2022/11/17 15:31:52;;;;;;;3.40;1.10;;;;;;;;;;4871146;29;20053;-85